Terminal Aerodrome Forecast
Issued by NWS

Home | Current Version | Previous Version | Text Only | Print | Product List | Glossary On
Versions: 1 2 3 4 5 6 7 8 9 10 11 12 13 14
000
FTPA31 PHFO 242218 AAA
TAFHJR
TAF AMD
PHJR 242218Z 2422/2518 06017G24KT 6SM -SHRA SCT015 BKN025
      TEMPO 2422/2502 BKN005 BKN015
     FM250600 09015G25KT P6SM -SHRA SCT025 BKN035
     FM251000 09008G15KT P6SM SCT025 BKN035=

USA.gov is the U.S. government's official web portal to all federal, state and local government web resources and services.